createdAt,value
2017-12-28T00:01:29.038Z,66.00
2017-12-28T00:03:55.831Z,65.90
2017-12-28T00:06:22.940Z,65.80
2017-12-28T00:08:49.697Z,65.80
2017-12-28T00:11:16.417Z,65.80
2017-12-28T00:13:44.683Z,66.00
2017-12-28T00:16:11.531Z,66.00
2017-12-28T00:18:38.577Z,65.80
2017-12-28T00:21:05.338Z,65.60
2017-12-28T00:23:31.981Z,65.70
2017-12-28T00:25:58.699Z,65.80
2017-12-28T00:28:25.472Z,65.80
2017-12-28T00:30:52.155Z,65.60
2017-12-28T00:33:18.940Z,65.70
2017-12-28T00:41:02.596Z,65.60
2017-12-28T00:43:29.257Z,65.60
2017-12-28T00:45:56.739Z,65.50
2017-12-28T00:48:23.540Z,65.70
2017-12-28T00:50:50.215Z,65.60
2017-12-28T00:53:20.669Z,65.50
2017-12-28T00:55:47.335Z,65.80
2017-12-28T00:58:14.090Z,65.70
2017-12-28T01:00:41.222Z,65.70
2017-12-28T01:03:07.876Z,65.70
2017-12-28T01:05:34.925Z,65.90
2017-12-28T01:08:01.597Z,65.70
2017-12-28T01:10:28.374Z,65.50
2017-12-28T01:12:55.102Z,65.40
2017-12-28T01:15:21.858Z,65.70
2017-12-28T01:20:38.247Z,65.40
2017-12-28T01:23:14.102Z,65.30
2017-12-28T01:25:44.649Z,65.70
2017-12-28T01:28:14.599Z,65.40
2017-12-28T01:30:41.246Z,65.50
2017-12-28T01:33:08.039Z,65.50
2017-12-28T01:35:34.716Z,65.20
2017-12-28T01:38:01.385Z,65.40
2017-12-28T01:40:28.198Z,65.40
2017-12-28T01:42:54.913Z,65.40
2017-12-28T01:45:21.617Z,65.50
2017-12-28T01:50:38.255Z,65.30
2017-12-28T01:53:04.909Z,65.20
2017-12-28T01:55:31.544Z,65.30
2017-12-28T01:57:58.216Z,65.20
2017-12-28T02:00:32.213Z,65.30
2017-12-28T02:03:08.235Z,65.30
2017-12-28T02:10:53.347Z,65.30
2017-12-28T02:13:20.598Z,65.20
2017-12-28T02:15:47.512Z,65.10
2017-12-28T02:18:14.288Z,65.40
2017-12-28T02:20:40.933Z,65.20
2017-12-28T02:23:07.591Z,65.20
2017-12-28T02:25:34.376Z,65.10
2017-12-28T02:28:02.683Z,65.10
2017-12-28T02:30:29.337Z,65.10
2017-12-28T02:32:56.000Z,65.10
2017-12-28T02:38:14.168Z,65.20
2017-12-28T02:43:19.358Z,65.20
2017-12-28T02:45:46.025Z,65.40
2017-12-28T02:48:12.741Z,65.20
2017-12-28T02:50:39.453Z,65.20
2017-12-28T02:53:06.112Z,65.20
2017-12-28T02:55:32.916Z,65.00
2017-12-28T02:57:59.599Z,64.90
2017-12-28T03:00:26.305Z,65.10
2017-12-28T03:05:32.235Z,64.90
2017-12-28T03:08:02.709Z,65.00
2017-12-28T03:10:38.133Z,65.00
2017-12-28T03:13:08.724Z,65.00
2017-12-28T03:15:35.368Z,64.80
2017-12-28T03:18:02.142Z,65.00
2017-12-28T03:20:28.834Z,64.90
2017-12-28T03:22:55.513Z,65.00
2017-12-28T03:25:22.286Z,65.00
2017-12-28T03:27:48.949Z,64.90
2017-12-28T03:30:15.631Z,64.80
2017-12-28T03:32:42.382Z,65.00
2017-12-28T03:35:14.812Z,64.90
2017-12-28T03:37:41.614Z,64.80
2017-12-28T03:40:08.299Z,65.00
2017-12-28T03:42:35.107Z,64.80
2017-12-28T03:45:02.797Z,64.80
2017-12-28T03:50:07.901Z,64.80
2017-12-28T03:55:14.427Z,64.70
2017-12-28T04:00:26.165Z,64.70
2017-12-28T04:02:52.838Z,64.60
2017-12-28T04:05:19.504Z,64.60
2017-12-28T04:13:04.533Z,64.70
2017-12-28T04:18:10.094Z,64.70
2017-12-28T04:20:36.765Z,64.60
2017-12-28T04:23:03.420Z,64.70
2017-12-28T04:25:32.722Z,64.70
2017-12-28T04:27:59.453Z,64.50
2017-12-28T04:30:26.184Z,64.80
2017-12-28T04:32:56.769Z,64.60
2017-12-28T04:35:23.564Z,64.70
2017-12-28T04:37:50.209Z,64.50
2017-12-28T04:40:16.900Z,64.70
2017-12-28T04:42:43.629Z,64.70
2017-12-28T04:45:10.368Z,64.60
2017-12-28T04:47:37.134Z,64.70
2017-12-28T04:50:03.794Z,64.50
2017-12-28T04:52:32.652Z,64.40
2017-12-28T04:54:59.317Z,64.60
2017-12-28T04:57:25.964Z,64.60
2017-12-28T04:59:56.677Z,64.50
2017-12-28T05:05:02.646Z,64.60
2017-12-28T05:10:08.865Z,64.50
2017-12-28T05:12:38.750Z,64.50
2017-12-28T05:15:05.405Z,64.90
2017-12-28T05:17:32.221Z,64.70
2017-12-28T05:19:58.864Z,64.70
2017-12-28T05:22:25.532Z,64.50
2017-12-28T05:24:52.174Z,64.60
2017-12-28T05:27:18.996Z,64.60
2017-12-28T05:29:45.648Z,64.80
2017-12-28T05:37:32.750Z,64.40
2017-12-28T05:40:02.858Z,64.50
2017-12-28T05:45:20.325Z,64.40
2017-12-28T05:47:46.983Z,64.40
2017-12-28T05:50:13.786Z,64.40
2017-12-28T05:52:40.480Z,64.40
2017-12-28T05:55:07.266Z,64.10
2017-12-28T05:57:34.610Z,64.20
2017-12-28T06:00:01.334Z,64.40
2017-12-28T06:02:28.311Z,64.10
2017-12-28T06:04:56.654Z,64.50
2017-12-28T06:07:32.323Z,64.20
2017-12-28T06:09:58.953Z,64.20
2017-12-28T06:12:25.638Z,64.10
2017-12-28T06:14:56.771Z,64.40
2017-12-28T06:17:32.381Z,64.50
2017-12-28T06:19:59.023Z,64.20
2017-12-28T06:22:25.691Z,64.40
2017-12-28T06:24:52.385Z,64.50
2017-12-28T06:27:19.145Z,64.20
2017-12-28T06:29:45.817Z,64.10
2017-12-28T06:32:12.523Z,64.10
2017-12-28T06:34:39.243Z,64.00
2017-12-28T06:37:05.913Z,64.10
2017-12-28T06:39:32.554Z,64.10
2017-12-28T06:41:59.248Z,64.10
2017-12-28T06:44:26.037Z,64.10
2017-12-28T06:46:53.111Z,64.10
2017-12-28T06:49:19.885Z,64.20
2017-12-28T06:51:46.577Z,64.10
2017-12-28T06:54:26.244Z,64.10
2017-12-28T06:56:52.898Z,64.10
2017-12-28T06:59:20.782Z,64.10
2017-12-28T07:01:50.780Z,64.10
2017-12-28T07:04:17.508Z,64.00
2017-12-28T07:06:44.766Z,64.10
2017-12-28T07:09:14.699Z,64.00
2017-12-28T07:11:44.789Z,64.00
2017-12-28T07:14:11.438Z,64.00
2017-12-28T07:16:38.118Z,64.00
2017-12-28T07:19:04.827Z,64.00
2017-12-28T07:21:31.541Z,64.00
2017-12-28T07:23:58.224Z,64.00
2017-12-28T07:26:24.882Z,64.00
2017-12-28T07:28:56.823Z,64.00
2017-12-28T07:31:23.488Z,64.00
2017-12-28T07:33:50.143Z,64.00
2017-12-28T07:36:16.966Z,64.00
2017-12-28T07:38:43.611Z,64.00
2017-12-28T07:41:10.305Z,63.90
2017-12-28T07:43:37.105Z,64.20
2017-12-28T07:46:03.877Z,64.10
2017-12-28T07:48:30.536Z,64.20
2017-12-28T07:51:02.935Z,64.10
2017-12-28T07:53:38.320Z,64.00
2017-12-28T07:58:43.523Z,64.00
2017-12-28T08:01:14.863Z,64.10
2017-12-28T08:03:41.519Z,64.10
2017-12-28T08:06:08.313Z,64.00
2017-12-28T08:08:38.825Z,63.90
2017-12-28T08:11:05.530Z,63.90
2017-12-28T08:13:32.310Z,64.00
2017-12-28T08:15:59.003Z,64.00
2017-12-28T08:18:25.779Z,63.90
2017-12-28T08:20:56.766Z,63.90
2017-12-28T08:23:32.355Z,63.90
2017-12-28T08:25:58.989Z,63.90
2017-12-28T08:28:27.816Z,64.10
2017-12-28T08:33:33.730Z,64.00
2017-12-28T08:36:00.515Z,64.00
2017-12-28T08:38:38.388Z,64.00
2017-12-28T08:41:08.726Z,64.00
2017-12-28T08:43:38.891Z,64.20
2017-12-28T08:46:05.530Z,64.20
2017-12-28T08:48:32.192Z,64.10
2017-12-28T08:50:58.949Z,64.30
2017-12-28T08:53:26.861Z,64.20
2017-12-28T08:55:56.719Z,64.20
2017-12-28T08:58:32.482Z,64.20
2017-12-28T09:03:37.987Z,64.20
2017-12-28T09:06:04.656Z,64.30
2017-12-28T09:08:31.438Z,64.30
2017-12-28T09:10:58.146Z,64.30
2017-12-28T09:13:24.903Z,64.20
2017-12-28T09:15:51.549Z,64.20
2017-12-28T09:18:18.216Z,64.20
2017-12-28T09:23:23.747Z,64.20
2017-12-28T09:25:50.774Z,64.20
2017-12-28T09:28:26.430Z,64.20
2017-12-28T09:30:53.102Z,64.10
2017-12-28T09:35:59.803Z,64.20
2017-12-28T09:38:26.944Z,64.20
2017-12-28T09:40:54.002Z,64.20
2017-12-28T09:43:20.711Z,64.20
2017-12-28T09:45:47.453Z,64.30
2017-12-28T09:48:14.113Z,64.20
2017-12-28T09:50:40.793Z,64.30
2017-12-28T09:53:07.534Z,64.30
2017-12-28T09:55:34.274Z,64.40
2017-12-28T09:58:01.015Z,64.30
2017-12-28T10:00:27.718Z,64.30
2017-12-28T10:02:54.353Z,64.30
2017-12-28T10:05:21.033Z,64.30
2017-12-28T10:07:47.773Z,64.30
2017-12-28T10:10:14.449Z,64.40
2017-12-28T10:12:41.098Z,64.40
2017-12-28T10:15:07.844Z,64.50
2017-12-28T10:17:38.815Z,64.40
2017-12-28T10:20:14.473Z,64.40
2017-12-28T10:22:41.136Z,64.30
2017-12-28T10:25:07.798Z,64.40
2017-12-28T10:27:34.714Z,64.30
2017-12-28T10:30:01.460Z,64.40
2017-12-28T10:32:32.785Z,64.20
2017-12-28T10:35:02.994Z,64.30
2017-12-28T10:37:29.759Z,64.30
2017-12-28T10:39:56.439Z,64.20
2017-12-28T10:42:23.151Z,64.30
2017-12-28T10:44:50.290Z,64.30
2017-12-28T10:47:16.931Z,64.40
2017-12-28T10:49:44.999Z,64.20
2017-12-28T10:52:20.424Z,64.20
2017-12-28T10:54:56.489Z,64.10
2017-12-28T10:57:23.186Z,64.20
2017-12-28T10:59:49.941Z,64.00
2017-12-28T11:04:55.341Z,64.20
2017-12-28T11:07:22.022Z,64.10
2017-12-28T11:09:48.776Z,64.00
2017-12-28T11:12:15.457Z,64.00
2017-12-28T11:14:44.911Z,64.00
2017-12-28T11:17:11.591Z,64.10
2017-12-28T11:19:38.800Z,63.90
2017-12-28T11:22:05.479Z,64.00
2017-12-28T11:24:32.121Z,63.90
2017-12-28T11:26:58.798Z,63.90
2017-12-28T11:29:25.564Z,63.70
2017-12-28T11:31:52.223Z,63.80
2017-12-28T11:34:18.870Z,63.50
2017-12-28T11:36:45.517Z,63.70
2017-12-28T11:39:12.321Z,63.40
2017-12-28T11:41:38.978Z,63.70
2017-12-28T11:44:05.667Z,63.20
2017-12-28T11:46:32.513Z,63.50
2017-12-28T11:48:59.261Z,63.40
2017-12-28T11:54:05.081Z,62.90
2017-12-28T11:56:38.487Z,63.10
2017-12-28T11:59:11.074Z,63.20
2017-12-28T12:01:44.664Z,62.80
2017-12-28T12:06:52.683Z,62.50
2017-12-28T12:09:19.326Z,62.50
2017-12-28T12:11:46.096Z,62.80
2017-12-28T12:14:12.765Z,62.60
2017-12-28T12:16:39.407Z,62.60
2017-12-28T12:19:06.084Z,62.50
2017-12-28T12:21:32.739Z,62.00
2017-12-28T12:23:59.501Z,62.10
2017-12-28T12:26:26.162Z,61.70
2017-12-28T12:28:52.857Z,62.30
2017-12-28T12:31:19.610Z,62.10
2017-12-28T12:33:50.977Z,62.20
2017-12-28T12:36:17.635Z,62.10
2017-12-28T12:38:44.297Z,62.10
2017-12-28T12:41:14.966Z,62.10
2017-12-28T12:43:41.697Z,61.70
2017-12-28T12:46:08.446Z,61.80
2017-12-28T12:48:35.106Z,61.80
2017-12-28T12:51:01.774Z,62.00
2017-12-28T12:53:28.470Z,61.80
2017-12-28T12:55:55.217Z,62.00
2017-12-28T12:58:26.989Z,61.80
2017-12-28T13:00:56.887Z,61.80
2017-12-28T13:03:23.745Z,62.00
2017-12-28T13:05:50.972Z,61.80
2017-12-28T13:08:17.619Z,61.80
2017-12-28T13:10:50.608Z,61.70
2017-12-28T13:13:20.905Z,61.30
2017-12-28T13:15:56.597Z,61.80
2017-12-28T13:18:26.869Z,61.40
2017-12-28T13:20:56.999Z,61.50
2017-12-28T13:28:50.514Z,61.50
2017-12-28T13:31:17.221Z,61.40
2017-12-28T13:33:44.018Z,61.40
2017-12-28T13:38:50.987Z,61.00
2017-12-28T13:41:26.601Z,61.10
2017-12-28T13:43:53.272Z,61.40
2017-12-28T13:46:20.094Z,61.10
2017-12-28T13:48:46.811Z,60.80
2017-12-28T13:51:15.037Z,60.90
2017-12-28T13:53:41.689Z,60.80
2017-12-28T13:56:08.898Z,61.20
2017-12-28T13:58:35.530Z,60.60
2017-12-28T14:01:02.193Z,60.70
2017-12-28T14:03:28.901Z,60.40
2017-12-28T14:05:55.697Z,61.00
2017-12-28T14:11:01.819Z,60.80
2017-12-28T14:16:07.603Z,60.60
2017-12-28T14:18:34.424Z,60.70
2017-12-28T14:21:01.093Z,60.70
2017-12-28T14:23:27.725Z,60.50
2017-12-28T14:25:54.401Z,60.40
2017-12-28T14:28:21.172Z,60.50
2017-12-28T14:30:47.872Z,60.50
2017-12-28T14:33:15.058Z,60.00
2017-12-28T14:35:41.725Z,60.50
2017-12-28T14:38:08.425Z,59.80
2017-12-28T14:40:35.169Z,60.40
2017-12-28T14:45:50.569Z,60.30
2017-12-28T14:48:17.266Z,60.20
2017-12-28T14:53:23.000Z,59.90
2017-12-28T14:55:49.655Z,60.00
2017-12-28T14:58:16.318Z,60.20
2017-12-28T15:00:43.080Z,59.90
2017-12-28T15:03:09.760Z,59.60
2017-12-28T15:05:36.437Z,59.70
2017-12-28T15:08:03.236Z,60.00
2017-12-28T15:10:29.905Z,59.80
2017-12-28T15:12:56.574Z,59.60
2017-12-28T15:15:23.325Z,59.80
2017-12-28T15:17:49.992Z,59.80
2017-12-28T15:20:16.665Z,59.70
2017-12-28T15:22:43.493Z,59.60
2017-12-28T15:25:10.117Z,59.80
2017-12-28T15:27:38.969Z,59.60
2017-12-28T15:30:05.614Z,59.80
2017-12-28T15:32:32.277Z,59.80
2017-12-28T15:40:17.976Z,59.80
2017-12-28T15:42:44.627Z,59.50
2017-12-28T15:45:11.296Z,59.40
2017-12-28T15:47:38.140Z,59.50
2017-12-28T15:50:06.020Z,59.50
2017-12-28T15:52:33.554Z,59.40
2017-12-28T15:55:01.063Z,59.60
2017-12-28T15:57:28.087Z,59.50
2017-12-28T15:59:55.180Z,59.60
2017-12-28T16:02:22.227Z,59.80
2017-12-28T16:04:48.943Z,59.70
2017-12-28T16:07:15.658Z,59.60
2017-12-28T16:09:42.984Z,59.80
2017-12-28T16:12:10.053Z,59.80
2017-12-28T16:14:36.822Z,59.50
2017-12-28T16:17:03.478Z,59.90
2017-12-28T16:19:30.917Z,59.50
2017-12-28T16:21:57.608Z,59.60
2017-12-28T16:24:24.439Z,59.80
2017-12-28T16:26:51.897Z,59.90
2017-12-28T16:29:18.592Z,59.70
2017-12-28T16:31:51.035Z,59.70
2017-12-28T16:34:17.742Z,59.70
2017-12-28T16:36:44.379Z,59.80
2017-12-28T16:39:15.139Z,59.60
2017-12-28T16:41:41.933Z,59.70
2017-12-28T16:44:08.595Z,59.80
2017-12-28T16:46:35.434Z,59.80
2017-12-28T16:49:02.209Z,59.90
2017-12-28T16:51:33.015Z,59.80
2017-12-28T16:56:39.209Z,59.90
2017-12-28T16:59:05.948Z,59.90
2017-12-28T17:01:32.673Z,59.80
2017-12-28T17:03:59.765Z,60.00
2017-12-28T17:06:26.513Z,59.90
2017-12-28T17:14:12.695Z,59.90
2017-12-28T17:19:18.622Z,60.20
2017-12-28T17:21:45.706Z,60.00
2017-12-28T17:26:51.893Z,60.20
2017-12-28T17:29:21.152Z,60.30
2017-12-28T17:31:47.998Z,60.30
2017-12-28T17:34:15.438Z,60.30
2017-12-28T17:39:21.198Z,60.20
2017-12-28T17:41:48.343Z,60.10
2017-12-28T17:44:15.069Z,60.30
2017-12-28T17:46:50.770Z,60.40
2017-12-28T17:49:26.615Z,60.20
2017-12-28T17:54:33.203Z,60.20
2017-12-28T17:59:39.180Z,60.40
2017-12-28T18:02:09.034Z,60.40
2017-12-28T18:04:36.148Z,60.50
2017-12-28T18:07:02.966Z,60.40
2017-12-28T18:09:33.078Z,60.40
2017-12-28T18:12:00.176Z,60.50
2017-12-28T18:14:26.982Z,60.40
2017-12-28T18:16:53.706Z,60.20
2017-12-28T18:19:20.835Z,60.40
2017-12-28T18:21:47.565Z,60.30
2017-12-28T18:24:14.356Z,60.40
2017-12-28T18:26:41.815Z,60.40
2017-12-28T18:29:08.635Z,60.60
2017-12-28T18:31:36.140Z,60.40
2017-12-28T18:34:02.935Z,60.40
2017-12-28T18:36:29.984Z,60.50
2017-12-28T18:38:56.644Z,60.50
2017-12-28T18:44:03.168Z,60.60
2017-12-28T18:46:29.908Z,60.40
2017-12-28T18:48:56.672Z,60.80
2017-12-28T18:51:23.320Z,60.60
2017-12-28T18:53:50.443Z,60.60
2017-12-28T18:56:17.633Z,60.60
2017-12-28T18:58:44.443Z,60.50
2017-12-28T19:01:15.202Z,60.50
2017-12-28T19:03:42.664Z,60.60
2017-12-28T19:06:09.506Z,60.50
2017-12-28T19:08:39.242Z,60.50
2017-12-28T19:11:06.070Z,60.50
2017-12-28T19:13:33.103Z,60.50
2017-12-28T19:15:59.840Z,60.60
2017-12-28T19:18:26.533Z,60.60
2017-12-28T19:20:53.220Z,60.70
2017-12-28T19:23:20.114Z,60.70
2017-12-28T19:25:46.879Z,60.70
2017-12-28T19:28:13.577Z,60.60
2017-12-28T19:30:45.105Z,60.80
2017-12-28T19:35:51.703Z,60.70
2017-12-28T19:38:18.543Z,60.70
2017-12-28T19:40:45.368Z,60.50
2017-12-28T19:43:12.217Z,60.70
2017-12-28T19:45:39.250Z,60.70
2017-12-28T19:48:06.129Z,60.80
2017-12-28T19:50:32.975Z,60.80
2017-12-28T19:53:00.194Z,60.70
2017-12-28T19:55:27.033Z,60.70
2017-12-28T20:00:32.800Z,60.70
2017-12-28T20:02:59.990Z,60.70
2017-12-28T20:05:27.229Z,60.70
2017-12-28T20:07:53.931Z,60.70
2017-12-28T20:10:21.141Z,60.80
2017-12-28T20:12:48.242Z,60.80
2017-12-28T20:15:15.066Z,60.70
2017-12-28T20:17:45.142Z,60.70
2017-12-28T20:20:11.863Z,60.90
2017-12-28T20:22:39.074Z,60.90
2017-12-28T20:25:06.155Z,60.80
2017-12-28T20:27:33.015Z,60.70
2017-12-28T20:30:00.195Z,60.70
2017-12-28T20:32:26.925Z,60.90
2017-12-28T20:34:54.072Z,60.90
2017-12-28T20:37:21.173Z,60.90
2017-12-28T20:39:47.972Z,61.00
2017-12-28T20:42:15.067Z,60.80
2017-12-28T20:44:42.289Z,60.90
2017-12-28T20:47:09.140Z,60.90
2017-12-28T20:49:36.421Z,61.00
2017-12-28T20:52:03.653Z,61.00
2017-12-28T20:54:30.482Z,61.00
2017-12-28T20:57:03.286Z,60.90
2017-12-28T20:59:30.118Z,61.00
2017-12-28T21:04:35.859Z,61.00
2017-12-28T21:12:20.994Z,60.90
2017-12-28T21:14:47.807Z,61.00
2017-12-28T21:17:15.483Z,61.20
2017-12-28T21:19:45.215Z,61.10
2017-12-28T21:22:12.021Z,61.10
2017-12-28T21:27:21.280Z,61.10
2017-12-28T21:29:48.513Z,61.10
2017-12-28T21:32:15.372Z,61.10
2017-12-28T21:34:42.194Z,61.10
2017-12-28T21:37:08.889Z,61.10
2017-12-28T21:39:36.519Z,61.10
2017-12-28T21:42:03.350Z,61.10
2017-12-28T21:44:30.205Z,61.10
2017-12-28T21:47:03.144Z,61.10
2017-12-28T21:49:33.281Z,61.10
2017-12-28T21:52:00.178Z,61.10
2017-12-28T21:54:27.367Z,61.10
2017-12-28T21:56:54.520Z,61.10
2017-12-28T22:02:08.762Z,61.10
2017-12-28T22:07:15.341Z,61.10
2017-12-28T22:09:50.791Z,61.20
2017-12-28T22:14:57.190Z,61.10
2017-12-28T22:17:24.295Z,61.20
2017-12-28T22:19:51.149Z,61.20
2017-12-28T22:22:18.338Z,61.10
2017-12-28T22:24:50.877Z,61.10
2017-12-28T22:27:17.969Z,61.20
2017-12-28T22:29:45.083Z,61.10
2017-12-28T22:32:12.237Z,61.20
2017-12-28T22:34:39.344Z,61.20
2017-12-28T22:37:06.524Z,61.20
2017-12-28T22:39:33.712Z,61.20
2017-12-28T22:42:00.849Z,61.20
2017-12-28T22:44:27.573Z,61.30
2017-12-28T22:46:54.717Z,61.30
2017-12-28T22:49:27.309Z,61.10
2017-12-28T22:54:35.026Z,61.10
2017-12-28T22:59:45.213Z,61.20
2017-12-28T23:02:12.426Z,61.20
2017-12-28T23:04:39.165Z,61.00
2017-12-28T23:07:06.747Z,61.10
2017-12-28T23:09:34.317Z,61.00
2017-12-28T23:14:39.976Z,61.10
2017-12-28T23:17:07.213Z,61.10
2017-12-28T23:19:34.476Z,61.10
2017-12-28T23:22:03.341Z,61.20
2017-12-28T23:24:30.445Z,61.10
2017-12-28T23:26:57.645Z,61.10
2017-12-28T23:29:27.362Z,61.10
2017-12-28T23:31:54.452Z,61.10
2017-12-28T23:34:22.316Z,61.20
2017-12-28T23:36:49.532Z,61.30
2017-12-28T23:39:16.647Z,61.10
2017-12-28T23:41:44.229Z,61.00
2017-12-28T23:44:11.750Z,61.00
2017-12-28T23:46:38.569Z,61.00
2017-12-28T23:49:05.783Z,61.00
2017-12-28T23:51:32.479Z,61.00
2017-12-28T23:53:59.646Z,61.00
2017-12-28T23:59:06.679Z,61.20
